Portada
METAR-TAF:

METAR-TAF

Aeropuertos :

Jönköping, Suecia

latitud: 57-46N, longitud: 014-05E, altitud: 226 m

Observación

El informe se hizo hace 18 minutos, a las 02:20 UTC
Viento calma
Temperatura 1°C
Humedad 93%
Presión 1029 hPa
Visibilidad 10 km o más

METAR: ESGJ 280220Z AUTO 00000KT 9999 NCD 01/00 Q1029

Hora: 04:38 (02:38 UTC)

Pronóstico

El informe se hizo hace 6 horas y 8 minutos, a las 20:30 UTC
Pronóstico válido del 27 a las 21 UTC al 28 a las 01 UTC
Viento 4 kt del oeste-noroeste
Visibilidad 10 km o más
sin nubes por debajo de 1500 m y sin presencia de cumulonimbus.

TAF: ESGJ 272030Z 2721/2801 30004KT CAVOK

Observaciones y pronósticos meteorológicos de más de 4000 aeropuertos (mensajes METAR y TAF).

Los puntos amarillos y rojos representan las estaciones disponibles.

Ponga el ratón en el punto deseado para ver el nombre de la estación.

Haga clic para ver las observaciones y los pronósticos meteorológicos.

Para cambiar el mapa : haga clic en los botones verdes con una cruz de color negro para hacer un zoom, en el botón verde con un guión para alejar o en las flechas verdes para mapas adyacentes.


METAR-TAF: